createdAt,value
2015-01-05T16:24:05.822Z,102702
2015-01-05T16:31:06.385Z,102700
2015-01-05T16:36:06.819Z,102694
2015-01-05T16:41:07.267Z,102685
2015-01-05T16:48:07.799Z,102697
2015-01-05T17:02:23.596Z,102692
2015-01-05T17:09:24.112Z,102689
2015-01-05T17:14:24.546Z,102689
2015-01-05T17:20:25.044Z,102677
2015-01-05T17:28:25.625Z,102689
2015-01-05T17:35:26.172Z,102683
2015-01-05T17:41:26.672Z,102683
2015-01-05T17:48:27.203Z,102681
2015-01-05T17:55:27.735Z,102678
2015-01-05T18:01:28.233Z,102669
2015-01-05T18:07:28.731Z,102689
2015-01-05T18:13:29.214Z,102689
2015-01-05T18:20:29.746Z,102675
2015-01-05T18:26:30.229Z,102669
2015-01-05T18:33:30.776Z,102684
2015-01-05T18:40:31.309Z,102681
2015-01-05T18:46:31.807Z,102663
2015-01-05T18:52:32.290Z,102669
2015-01-05T18:59:32.837Z,102666
2015-01-05T19:07:36.418Z,102669
2015-01-05T19:12:33.851Z,102664
2015-01-05T19:21:34.497Z,102675
2015-01-05T19:26:34.946Z,102672
2015-01-05T19:34:35.527Z,102684
2015-01-05T19:41:36.058Z,102693
2015-01-05T19:48:36.622Z,102684
2015-01-05T19:55:37.155Z,102676
2015-01-05T20:02:37.686Z,102670
2015-01-05T20:07:38.119Z,102685
2015-01-05T20:15:38.715Z,102688
2015-01-05T20:22:39.263Z,102697
2015-01-05T20:30:39.844Z,102689
2015-01-05T20:37:40.391Z,102689
2015-01-05T20:42:40.825Z,102686
2015-01-05T20:50:41.421Z,102689
2015-01-05T20:56:41.904Z,102674
2015-01-05T21:02:42.401Z,102677
2015-01-05T21:09:42.950Z,102686
2015-01-05T21:15:43.432Z,102680
2015-01-05T21:23:44.028Z,102683
2015-01-05T21:29:44.511Z,102692
2015-01-05T21:36:45.058Z,102680
2015-01-05T21:42:45.541Z,102668
2015-01-05T21:49:46.088Z,102674
2015-01-05T21:57:46.670Z,102654
2015-01-05T22:03:47.167Z,102656
2015-01-05T22:10:47.699Z,102650
2015-01-05T22:17:48.246Z,102647
2015-01-05T22:23:48.729Z,102650
2015-01-05T22:29:49.212Z,102641
2015-01-05T22:37:49.809Z,102638
2015-01-05T22:46:50.439Z,102633
2015-01-05T22:51:50.888Z,102624
2015-01-05T22:58:51.419Z,102627
2015-01-05T23:04:51.902Z,102626
2015-01-05T23:10:52.385Z,102643
2015-01-05T23:16:52.882Z,102632
2015-01-05T23:23:53.415Z,102626
2015-01-05T23:31:54.069Z,102620
2015-01-05T23:37:54.587Z,102623
2015-01-05T23:45:55.173Z,102608
2015-01-05T23:51:55.673Z,102585
2015-01-05T23:58:56.204Z,102599
